sensor_id;sensor_type;location;lat;lon;timestamp;P1;durP1;ratioP1;P2;durP2;ratioP2
9445;SDS011;4761;49.490;10.908;2022-12-26T00:01:40;1.83;;;1.60;;
9445;SDS011;4761;49.490;10.908;2022-12-26T00:04:09;2.50;;;1.60;;
9445;SDS011;4761;49.490;10.908;2022-12-26T00:06:34;1.70;;;1.47;;
9445;SDS011;4761;49.490;10.908;2022-12-26T00:09:00;1.40;;;1.30;;
9445;SDS011;4761;49.490;10.908;2022-12-26T00:11:27;1.40;;;1.30;;
9445;SDS011;4761;49.490;10.908;2022-12-26T00:13:54;2.43;;;1.70;;
9445;SDS011;4761;49.490;10.908;2022-12-26T00:16:21;1.60;;;1.40;;
9445;SDS011;4761;49.490;10.908;2022-12-26T00:18:48;1.50;;;1.40;;
9445;SDS011;4761;49.490;10.908;2022-12-26T00:21:14;1.73;;;1.63;;
9445;SDS011;4761;49.490;10.908;2022-12-26T00:23:41;1.40;;;1.30;;
9445;SDS011;4761;49.490;10.908;2022-12-26T00:26:08;1.60;;;1.50;;
9445;SDS011;4761;49.490;10.908;2022-12-26T00:28:38;1.57;;;1.47;;
9445;SDS011;4761;49.490;10.908;2022-12-26T00:31:09;1.60;;;1.50;;
9445;SDS011;4761;49.490;10.908;2022-12-26T00:33:36;1.77;;;1.50;;
9445;SDS011;4761;49.490;10.908;2022-12-26T00:36:03;1.40;;;1.30;;
9445;SDS011;4761;49.490;10.908;2022-12-26T00:38:32;1.30;;;1.20;;
9445;SDS011;4761;49.490;10.908;2022-12-26T00:40:59;1.30;;;1.20;;
9445;SDS011;4761;49.490;10.908;2022-12-26T00:43:24;1.23;;;1.13;;
9445;SDS011;4761;49.490;10.908;2022-12-26T00:45:50;1.60;;;1.50;;
9445;SDS011;4761;49.490;10.908;2022-12-26T00:48:16;2.93;;;1.40;;
9445;SDS011;4761;49.490;10.908;2022-12-26T00:50:41;1.73;;;1.10;;
9445;SDS011;4761;49.490;10.908;2022-12-26T00:53:07;1.50;;;1.40;;
9445;SDS011;4761;49.490;10.908;2022-12-26T00:55:32;1.57;;;1.40;;
9445;SDS011;4761;49.490;10.908;2022-12-26T00:57:58;1.40;;;1.30;;
9445;SDS011;4761;49.490;10.908;2022-12-26T01:00:23;1.33;;;1.23;;
9445;SDS011;4761;49.490;10.908;2022-12-26T01:02:49;1.30;;;1.20;;
9445;SDS011;4761;49.490;10.908;2022-12-26T01:05:15;1.33;;;1.23;;
9445;SDS011;4761;49.490;10.908;2022-12-26T01:07:41;1.33;;;1.23;;
9445;SDS011;4761;49.490;10.908;2022-12-26T01:10:07;1.23;;;1.13;;
9445;SDS011;4761;49.490;10.908;2022-12-26T01:12:33;1.30;;;1.20;;
9445;SDS011;4761;49.490;10.908;2022-12-26T01:14:59;1.43;;;1.33;;
9445;SDS011;4761;49.490;10.908;2022-12-26T01:17:26;1.40;;;1.17;;
9445;SDS011;4761;49.490;10.908;2022-12-26T01:19:52;1.50;;;1.40;;
9445;SDS011;4761;49.490;10.908;2022-12-26T01:22:18;1.30;;;1.17;;
9445;SDS011;4761;49.490;10.908;2022-12-26T01:24:44;1.50;;;1.27;;
9445;SDS011;4761;49.490;10.908;2022-12-26T01:27:10;1.70;;;1.60;;
9445;SDS011;4761;49.490;10.908;2022-12-26T01:29:36;1.43;;;1.27;;
9445;SDS011;4761;49.490;10.908;2022-12-26T01:32:01;1.20;;;1.10;;
9445;SDS011;4761;49.490;10.908;2022-12-26T01:34:27;1.60;;;1.50;;
9445;SDS011;4761;49.490;10.908;2022-12-26T01:36:53;1.30;;;1.20;;
9445;SDS011;4761;49.490;10.908;2022-12-26T01:39:18;1.30;;;1.20;;
9445;SDS011;4761;49.490;10.908;2022-12-26T01:41:46;2.00;;;1.23;;
9445;SDS011;4761;49.490;10.908;2022-12-26T01:47:15;1.40;;;1.30;;
9445;SDS011;4761;49.490;10.908;2022-12-26T01:49:43;1.90;;;1.27;;
9445;SDS011;4761;49.490;10.908;2022-12-26T01:52:16;1.30;;;1.20;;
9445;SDS011;4761;49.490;10.908;2022-12-26T01:54:50;1.23;;;1.10;;
9445;SDS011;4761;49.490;10.908;2022-12-26T01:57:19;1.60;;;1.40;;
9445;SDS011;4761;49.490;10.908;2022-12-26T01:59:48;1.27;;;1.17;;
9445;SDS011;4761;49.490;10.908;2022-12-26T02:02:15;1.30;;;1.20;;
9445;SDS011;4761;49.490;10.908;2022-12-26T02:04:43;1.30;;;1.20;;
9445;SDS011;4761;49.490;10.908;2022-12-26T02:07:32;1.10;;;1.00;;
9445;SDS011;4761;49.490;10.908;2022-12-26T02:09:59;1.30;;;1.20;;
9445;SDS011;4761;49.490;10.908;2022-12-26T02:12:27;1.50;;;1.40;;
9445;SDS011;4761;49.490;10.908;2022-12-26T02:14:55;1.30;;;1.13;;
9445;SDS011;4761;49.490;10.908;2022-12-26T02:17:21;1.47;;;1.30;;
9445;SDS011;4761;49.490;10.908;2022-12-26T02:25:28;1.20;;;1.10;;
9445;SDS011;4761;49.490;10.908;2022-12-26T02:31:11;1.20;;;1.10;;
9445;SDS011;4761;49.490;10.908;2022-12-26T02:33:52;2.03;;;1.10;;
9445;SDS011;4761;49.490;10.908;2022-12-26T02:36:45;1.20;;;1.10;;
9445;SDS011;4761;49.490;10.908;2022-12-26T02:42:14;1.30;;;1.20;;
9445;SDS011;4761;49.490;10.908;2022-12-26T02:44:53;1.17;;;1.07;;
9445;SDS011;4761;49.490;10.908;2022-12-26T02:47:51;1.53;;;1.30;;
9445;SDS011;4761;49.490;10.908;2022-12-26T02:53:52;1.67;;;1.30;;
9445;SDS011;4761;49.490;10.908;2022-12-26T02:56:45;1.20;;;1.00;;
9445;SDS011;4761;49.490;10.908;2022-12-26T02:59:39;0.97;;;0.90;;
9445;SDS011;4761;49.490;10.908;2022-12-26T03:06:23;1.17;;;1.07;;
9445;SDS011;4761;49.490;10.908;2022-12-26T03:09:11;1.20;;;1.10;;
9445;SDS011;4761;49.490;10.908;2022-12-26T03:12:06;0.90;;;0.90;;
9445;SDS011;4761;49.490;10.908;2022-12-26T03:15:09;1.23;;;1.13;;
9445;SDS011;4761;49.490;10.908;2022-12-26T03:17:40;1.33;;;1.00;;
9445;SDS011;4761;49.490;10.908;2022-12-26T03:20:27;1.77;;;1.20;;
9445;SDS011;4761;49.490;10.908;2022-12-26T03:22:58;1.20;;;1.10;;
9445;SDS011;4761;49.490;10.908;2022-12-26T03:28:10;1.20;;;1.10;;
9445;SDS011;4761;49.490;10.908;2022-12-26T03:30:37;1.30;;;1.10;;
9445;SDS011;4761;49.490;10.908;2022-12-26T03:33:15;1.20;;;1.10;;
9445;SDS011;4761;49.490;10.908;2022-12-26T03:36:00;1.30;;;1.20;;
9445;SDS011;4761;49.490;10.908;2022-12-26T03:38:29;1.20;;;1.10;;
9445;SDS011;4761;49.490;10.908;2022-12-26T03:41:58;1.17;;;1.00;;
9445;SDS011;4761;49.490;10.908;2022-12-26T03:48:25;0.90;;;0.90;;
9445;SDS011;4761;49.490;10.908;2022-12-26T03:51:05;0.90;;;0.90;;
9445;SDS011;4761;49.490;10.908;2022-12-26T03:53:57;1.13;;;1.10;;
9445;SDS011;4761;49.490;10.908;2022-12-26T03:56:51;1.00;;;1.00;;
9445;SDS011;4761;49.490;10.908;2022-12-26T03:59:46;1.80;;;1.10;;
9445;SDS011;4761;49.490;10.908;2022-12-26T04:02:43;0.90;;;0.90;;
9445;SDS011;4761;49.490;10.908;2022-12-26T04:05:29;0.90;;;0.90;;
9445;SDS011;4761;49.490;10.908;2022-12-26T04:08:20;1.93;;;1.07;;
9445;SDS011;4761;49.490;10.908;2022-12-26T04:11:09;1.20;;;1.10;;
9445;SDS011;4761;49.490;10.908;2022-12-26T04:14:06;0.97;;;0.97;;
9445;SDS011;4761;49.490;10.908;2022-12-26T04:23:02;0.90;;;0.90;;
9445;SDS011;4761;49.490;10.908;2022-12-26T04:25:53;1.27;;;1.00;;
9445;SDS011;4761;49.490;10.908;2022-12-26T04:28:47;1.00;;;0.90;;
9445;SDS011;4761;49.490;10.908;2022-12-26T04:31:37;0.90;;;0.90;;
9445;SDS011;4761;49.490;10.908;2022-12-26T04:34:32;1.20;;;1.10;;
9445;SDS011;4761;49.490;10.908;2022-12-26T04:37:40;0.80;;;0.80;;
9445;SDS011;4761;49.490;10.908;2022-12-26T04:40:28;0.93;;;0.93;;
9445;SDS011;4761;49.490;10.908;2022-12-26T04:43:17;1.00;;;1.00;;
9445;SDS011;4761;49.490;10.908;2022-12-26T04:46:02;0.90;;;0.83;;
9445;SDS011;4761;49.490;10.908;2022-12-26T04:48:29;1.17;;;1.07;;
9445;SDS011;4761;49.490;10.908;2022-12-26T04:51:13;0.93;;;0.93;;
9445;SDS011;4761;49.490;10.908;2022-12-26T04:53:39;0.93;;;0.93;;
9445;SDS011;4761;49.490;10.908;2022-12-26T04:56:04;0.90;;;0.90;;
9445;SDS011;4761;49.490;10.908;2022-12-26T04:58:30;1.00;;;1.00;;
9445;SDS011;4761;49.490;10.908;2022-12-26T05:00:56;1.00;;;0.90;;
9445;SDS011;4761;49.490;10.908;2022-12-26T05:03:42;1.10;;;1.00;;
9445;SDS011;4761;49.490;10.908;2022-12-26T05:06:26;0.87;;;0.87;;
9445;SDS011;4761;49.490;10.908;2022-12-26T05:09:10;1.00;;;0.90;;
9445;SDS011;4761;49.490;10.908;2022-12-26T05:11:55;1.90;;;0.90;;
9445;SDS011;4761;49.490;10.908;2022-12-26T05:14:21;1.13;;;1.00;;
9445;SDS011;4761;49.490;10.908;2022-12-26T05:16:46;0.80;;;0.80;;
9445;SDS011;4761;49.490;10.908;2022-12-26T05:19:30;1.17;;;1.00;;
9445;SDS011;4761;49.490;10.908;2022-12-26T05:22:14;1.10;;;1.00;;
9445;SDS011;4761;49.490;10.908;2022-12-26T05:24:58;0.90;;;0.90;;
9445;SDS011;4761;49.490;10.908;2022-12-26T05:27:42;0.90;;;0.90;;
9445;SDS011;4761;49.490;10.908;2022-12-26T05:30:27;1.00;;;0.90;;
9445;SDS011;4761;49.490;10.908;2022-12-26T05:32:53;1.00;;;0.90;;
9445;SDS011;4761;49.490;10.908;2022-12-26T05:35:37;0.87;;;0.87;;
9445;SDS011;4761;49.490;10.908;2022-12-26T05:38:03;1.13;;;1.00;;
9445;SDS011;4761;49.490;10.908;2022-12-26T05:40:29;1.03;;;1.00;;
9445;SDS011;4761;49.490;10.908;2022-12-26T05:42:55;1.07;;;0.97;;
9445;SDS011;4761;49.490;10.908;2022-12-26T05:45:20;0.80;;;0.80;;
9445;SDS011;4761;49.490;10.908;2022-12-26T05:47:46;0.80;;;0.80;;
9445;SDS011;4761;49.490;10.908;2022-12-26T05:50:11;0.90;;;0.90;;
9445;SDS011;4761;49.490;10.908;2022-12-26T05:52:37;0.80;;;0.80;;
9445;SDS011;4761;49.490;10.908;2022-12-26T05:55:03;1.00;;;1.00;;
9445;SDS011;4761;49.490;10.908;2022-12-26T05:57:28;0.90;;;0.90;;
9445;SDS011;4761;49.490;10.908;2022-12-26T05:59:54;2.03;;;1.10;;
9445;SDS011;4761;49.490;10.908;2022-12-26T06:02:20;1.00;;;0.80;;
9445;SDS011;4761;49.490;10.908;2022-12-26T06:04:45;0.80;;;0.80;;
9445;SDS011;4761;49.490;10.908;2022-12-26T06:07:11;0.90;;;0.90;;
9445;SDS011;4761;49.490;10.908;2022-12-26T06:09:36;0.80;;;0.80;;
9445;SDS011;4761;49.490;10.908;2022-12-26T06:12:02;1.00;;;1.00;;
9445;SDS011;4761;49.490;10.908;2022-12-26T06:14:27;1.63;;;1.17;;
9445;SDS011;4761;49.490;10.908;2022-12-26T06:16:53;1.10;;;1.00;;
9445;SDS011;4761;49.490;10.908;2022-12-26T06:19:18;1.10;;;1.00;;
9445;SDS011;4761;49.490;10.908;2022-12-26T06:21:44;1.20;;;1.10;;
9445;SDS011;4761;49.490;10.908;2022-12-26T06:24:09;1.20;;;1.00;;
9445;SDS011;4761;49.490;10.908;2022-12-26T06:26:35;1.33;;;0.97;;
9445;SDS011;4761;49.490;10.908;2022-12-26T06:29:01;0.90;;;0.90;;
9445;SDS011;4761;49.490;10.908;2022-12-26T06:31:27;0.80;;;0.80;;
9445;SDS011;4761;49.490;10.908;2022-12-26T06:33:54;1.47;;;0.90;;
9445;SDS011;4761;49.490;10.908;2022-12-26T06:36:22;0.87;;;0.87;;
9445;SDS011;4761;49.490;10.908;2022-12-26T06:38:49;1.10;;;0.90;;
9445;SDS011;4761;49.490;10.908;2022-12-26T06:41:18;0.97;;;0.97;;
9445;SDS011;4761;49.490;10.908;2022-12-26T06:43:45;0.93;;;0.90;;
9445;SDS011;4761;49.490;10.908;2022-12-26T06:46:12;1.10;;;1.00;;
9445;SDS011;4761;49.490;10.908;2022-12-26T06:48:39;0.73;;;0.73;;
9445;SDS011;4761;49.490;10.908;2022-12-26T06:51:05;1.07;;;0.90;;
9445;SDS011;4761;49.490;10.908;2022-12-26T06:53:32;0.70;;;0.70;;
9445;SDS011;4761;49.490;10.908;2022-12-26T06:56:08;2.40;;;0.90;;
9445;SDS011;4761;49.490;10.908;2022-12-26T06:58:34;0.80;;;0.80;;
9445;SDS011;4761;49.490;10.908;2022-12-26T07:01:07;1.10;;;1.00;;
9445;SDS011;4761;49.490;10.908;2022-12-26T07:03:37;1.23;;;0.87;;
9445;SDS011;4761;49.490;10.908;2022-12-26T07:06:37;0.90;;;0.90;;
9445;SDS011;4761;49.490;10.908;2022-12-26T07:09:01;1.20;;;1.10;;
9445;SDS011;4761;49.490;10.908;2022-12-26T07:11:32;1.10;;;1.00;;
9445;SDS011;4761;49.490;10.908;2022-12-26T07:13:59;0.83;;;0.83;;
9445;SDS011;4761;49.490;10.908;2022-12-26T07:16:25;0.80;;;0.80;;
9445;SDS011;4761;49.490;10.908;2022-12-26T07:18:54;1.10;;;0.90;;
9445;SDS011;4761;49.490;10.908;2022-12-26T07:21:21;0.70;;;0.70;;
9445;SDS011;4761;49.490;10.908;2022-12-26T07:23:47;1.10;;;0.90;;
9445;SDS011;4761;49.490;10.908;2022-12-26T07:26:13;1.00;;;1.00;;
9445;SDS011;4761;49.490;10.908;2022-12-26T07:28:39;0.80;;;0.80;;
9445;SDS011;4761;49.490;10.908;2022-12-26T07:31:04;1.00;;;0.90;;
9445;SDS011;4761;49.490;10.908;2022-12-26T07:33:30;1.00;;;0.90;;
9445;SDS011;4761;49.490;10.908;2022-12-26T07:36:00;0.90;;;0.90;;
9445;SDS011;4761;49.490;10.908;2022-12-26T07:38:29;1.10;;;0.93;;
9445;SDS011;4761;49.490;10.908;2022-12-26T07:40:56;0.77;;;0.77;;
9445;SDS011;4761;49.490;10.908;2022-12-26T07:43:22;0.73;;;0.73;;
9445;SDS011;4761;49.490;10.908;2022-12-26T07:45:49;0.90;;;0.90;;
9445;SDS011;4761;49.490;10.908;2022-12-26T07:48:15;0.77;;;0.77;;
9445;SDS011;4761;49.490;10.908;2022-12-26T07:50:41;0.77;;;0.77;;
9445;SDS011;4761;49.490;10.908;2022-12-26T07:53:11;1.07;;;0.97;;
9445;SDS011;4761;49.490;10.908;2022-12-26T07:55:39;1.10;;;1.00;;
9445;SDS011;4761;49.490;10.908;2022-12-26T07:58:05;0.90;;;0.90;;
9445;SDS011;4761;49.490;10.908;2022-12-26T08:00:31;0.90;;;0.90;;
9445;SDS011;4761;49.490;10.908;2022-12-26T08:02:57;0.90;;;0.80;;
9445;SDS011;4761;49.490;10.908;2022-12-26T08:05:22;0.93;;;0.80;;
9445;SDS011;4761;49.490;10.908;2022-12-26T08:07:48;0.80;;;0.80;;
9445;SDS011;4761;49.490;10.908;2022-12-26T08:10:14;1.10;;;1.00;;
9445;SDS011;4761;49.490;10.908;2022-12-26T08:12:40;1.00;;;0.93;;
9445;SDS011;4761;49.490;10.908;2022-12-26T08:15:06;0.90;;;0.90;;
9445;SDS011;4761;49.490;10.908;2022-12-26T08:17:33;0.97;;;0.90;;
9445;SDS011;4761;49.490;10.908;2022-12-26T08:19:59;0.80;;;0.80;;
9445;SDS011;4761;49.490;10.908;2022-12-26T08:22:24;0.87;;;0.87;;
9445;SDS011;4761;49.490;10.908;2022-12-26T08:24:51;0.90;;;0.90;;
9445;SDS011;4761;49.490;10.908;2022-12-26T08:27:17;0.90;;;0.90;;
9445;SDS011;4761;49.490;10.908;2022-12-26T08:29:44;0.93;;;0.90;;
9445;SDS011;4761;49.490;10.908;2022-12-26T08:32:11;0.90;;;0.90;;
9445;SDS011;4761;49.490;10.908;2022-12-26T08:34:36;0.83;;;0.83;;
9445;SDS011;4761;49.490;10.908;2022-12-26T08:37:02;0.87;;;0.87;;
9445;SDS011;4761;49.490;10.908;2022-12-26T08:39:27;1.17;;;1.00;;
9445;SDS011;4761;49.490;10.908;2022-12-26T08:41:53;1.30;;;0.97;;
9445;SDS011;4761;49.490;10.908;2022-12-26T08:44:19;1.33;;;0.90;;
9445;SDS011;4761;49.490;10.908;2022-12-26T08:46:44;0.90;;;0.90;;
9445;SDS011;4761;49.490;10.908;2022-12-26T08:49:10;1.17;;;0.87;;
9445;SDS011;4761;49.490;10.908;2022-12-26T08:51:37;0.80;;;0.80;;
9445;SDS011;4761;49.490;10.908;2022-12-26T08:54:02;1.00;;;1.00;;
9445;SDS011;4761;49.490;10.908;2022-12-26T08:56:28;1.13;;;1.03;;
9445;SDS011;4761;49.490;10.908;2022-12-26T08:58:54;1.00;;;0.90;;
9445;SDS011;4761;49.490;10.908;2022-12-26T09:01:23;1.27;;;1.10;;
9445;SDS011;4761;49.490;10.908;2022-12-26T09:03:54;0.90;;;0.90;;
9445;SDS011;4761;49.490;10.908;2022-12-26T09:06:21;0.87;;;0.87;;
9445;SDS011;4761;49.490;10.908;2022-12-26T09:08:48;1.93;;;0.90;;
9445;SDS011;4761;49.490;10.908;2022-12-26T09:11:17;1.00;;;1.00;;
9445;SDS011;4761;49.490;10.908;2022-12-26T09:13:44;0.90;;;0.90;;
9445;SDS011;4761;49.490;10.908;2022-12-26T09:16:14;0.83;;;0.83;;
9445;SDS011;4761;49.490;10.908;2022-12-26T09:18:45;0.83;;;0.83;;
9445;SDS011;4761;49.490;10.908;2022-12-26T09:21:11;1.03;;;1.00;;
9445;SDS011;4761;49.490;10.908;2022-12-26T09:23:38;1.20;;;1.10;;
9445;SDS011;4761;49.490;10.908;2022-12-26T09:26:08;1.30;;;1.07;;
9445;SDS011;4761;49.490;10.908;2022-12-26T09:28:36;1.30;;;1.20;;
9445;SDS011;4761;49.490;10.908;2022-12-26T09:31:02;1.20;;;1.10;;
9445;SDS011;4761;49.490;10.908;2022-12-26T09:33:30;1.53;;;1.17;;
9445;SDS011;4761;49.490;10.908;2022-12-26T09:35:58;1.77;;;1.40;;
9445;SDS011;4761;49.490;10.908;2022-12-26T09:38:24;1.10;;;1.00;;
9445;SDS011;4761;49.490;10.908;2022-12-26T09:49:02;1.20;;;1.10;;
9445;SDS011;4761;49.490;10.908;2022-12-26T09:51:32;1.03;;;1.03;;
9445;SDS011;4761;49.490;10.908;2022-12-26T09:53:59;1.17;;;1.00;;
9445;SDS011;4761;49.490;10.908;2022-12-26T09:56:27;1.23;;;1.10;;
9445;SDS011;4761;49.490;10.908;2022-12-26T09:58:58;0.90;;;0.90;;
9445;SDS011;4761;49.490;10.908;2022-12-26T10:01:30;1.70;;;1.00;;
9445;SDS011;4761;49.490;10.908;2022-12-26T10:03:59;1.63;;;1.30;;
9445;SDS011;4761;49.490;10.908;2022-12-26T10:06:38;0.90;;;0.90;;
9445;SDS011;4761;49.490;10.908;2022-12-26T10:14:02;1.10;;;1.00;;
9445;SDS011;4761;49.490;10.908;2022-12-26T10:17:24;1.20;;;1.10;;
9445;SDS011;4761;49.490;10.908;2022-12-26T10:19:44;1.23;;;1.13;;
9445;SDS011;4761;49.490;10.908;2022-12-26T10:25:19;1.20;;;1.10;;
9445;SDS011;4761;49.490;10.908;2022-12-26T10:27:52;2.10;;;1.30;;
9445;SDS011;4761;49.490;10.908;2022-12-26T10:30:30;1.43;;;1.33;;
9445;SDS011;4761;49.490;10.908;2022-12-26T10:33:00;1.33;;;1.10;;
9445;SDS011;4761;49.490;10.908;2022-12-26T10:35:35;1.20;;;1.10;;
9445;SDS011;4761;49.490;10.908;2022-12-26T10:38:04;1.00;;;0.90;;
9445;SDS011;4761;49.490;10.908;2022-12-26T10:40:42;1.30;;;1.20;;
9445;SDS011;4761;49.490;10.908;2022-12-26T10:45:49;1.17;;;1.10;;
9445;SDS011;4761;49.490;10.908;2022-12-26T10:48:27;1.30;;;1.20;;
9445;SDS011;4761;49.490;10.908;2022-12-26T10:50:53;1.30;;;1.20;;
9445;SDS011;4761;49.490;10.908;2022-12-26T10:53:19;1.33;;;1.23;;
9445;SDS011;4761;49.490;10.908;2022-12-26T10:55:45;1.37;;;1.27;;
9445;SDS011;4761;49.490;10.908;2022-12-26T10:58:17;1.40;;;1.30;;
9445;SDS011;4761;49.490;10.908;2022-12-26T11:00:54;1.17;;;1.07;;
9445;SDS011;4761;49.490;10.908;2022-12-26T11:03:20;1.43;;;1.10;;
9445;SDS011;4761;49.490;10.908;2022-12-26T11:05:47;1.30;;;1.13;;
9445;SDS011;4761;49.490;10.908;2022-12-26T11:08:18;0.90;;;0.90;;
9445;SDS011;4761;49.490;10.908;2022-12-26T11:11:02;1.50;;;1.27;;
9445;SDS011;4761;49.490;10.908;2022-12-26T11:13:39;1.37;;;1.27;;
9445;SDS011;4761;49.490;10.908;2022-12-26T11:16:10;2.77;;;1.30;;
9445;SDS011;4761;49.490;10.908;2022-12-26T11:21:13;1.20;;;1.10;;
9445;SDS011;4761;49.490;10.908;2022-12-26T11:23:50;1.27;;;1.17;;
9445;SDS011;4761;49.490;10.908;2022-12-26T11:28:42;1.30;;;1.20;;
9445;SDS011;4761;49.490;10.908;2022-12-26T11:31:14;1.20;;;1.10;;
9445;SDS011;4761;49.490;10.908;2022-12-26T11:33:48;1.23;;;1.07;;
9445;SDS011;4761;49.490;10.908;2022-12-26T11:38:45;1.10;;;1.00;;
9445;SDS011;4761;49.490;10.908;2022-12-26T11:44:04;1.20;;;1.10;;
9445;SDS011;4761;49.490;10.908;2022-12-26T11:49:34;1.03;;;0.90;;
9445;SDS011;4761;49.490;10.908;2022-12-26T11:52:36;1.13;;;1.03;;
9445;SDS011;4761;49.490;10.908;2022-12-26T11:58:21;1.00;;;0.90;;
9445;SDS011;4761;49.490;10.908;2022-12-26T12:00:43;1.17;;;1.07;;
9445;SDS011;4761;49.490;10.908;2022-12-26T12:08:54;0.80;;;0.80;;
9445;SDS011;4761;49.490;10.908;2022-12-26T12:11:50;1.00;;;0.93;;
9445;SDS011;4761;49.490;10.908;2022-12-26T12:17:22;1.10;;;1.00;;
9445;SDS011;4761;49.490;10.908;2022-12-26T12:27:58;0.87;;;0.87;;
9445;SDS011;4761;49.490;10.908;2022-12-26T12:33:31;1.10;;;1.00;;
9445;SDS011;4761;49.490;10.908;2022-12-26T12:41:28;0.90;;;0.80;;
9445;SDS011;4761;49.490;10.908;2022-12-26T12:44:15;0.93;;;0.80;;
9445;SDS011;4761;49.490;10.908;2022-12-26T12:47:08;0.97;;;0.87;;
9445;SDS011;4761;49.490;10.908;2022-12-26T12:53:04;1.10;;;1.00;;
9445;SDS011;4761;49.490;10.908;2022-12-26T13:04:01;1.00;;;1.00;;
9445;SDS011;4761;49.490;10.908;2022-12-26T13:09:03;0.93;;;0.93;;
9445;SDS011;4761;49.490;10.908;2022-12-26T13:14:11;0.73;;;0.73;;
9445;SDS011;4761;49.490;10.908;2022-12-26T13:16:49;0.80;;;0.80;;
9445;SDS011;4761;49.490;10.908;2022-12-26T13:19:19;0.83;;;0.70;;
9445;SDS011;4761;49.490;10.908;2022-12-26T13:21:49;1.03;;;0.87;;
9445;SDS011;4761;49.490;10.908;2022-12-26T13:24:33;0.70;;;0.70;;
9445;SDS011;4761;49.490;10.908;2022-12-26T13:29:45;1.20;;;0.97;;
9445;SDS011;4761;49.490;10.908;2022-12-26T13:34:44;0.60;;;0.60;;
9445;SDS011;4761;49.490;10.908;2022-12-26T13:40:02;0.80;;;0.80;;
9445;SDS011;4761;49.490;10.908;2022-12-26T13:42:39;0.90;;;0.90;;
9445;SDS011;4761;49.490;10.908;2022-12-26T13:50:49;0.70;;;0.70;;
9445;SDS011;4761;49.490;10.908;2022-12-26T13:55:56;0.80;;;0.80;;
9445;SDS011;4761;49.490;10.908;2022-12-26T14:01:42;0.70;;;0.70;;
9445;SDS011;4761;49.490;10.908;2022-12-26T14:04:22;2.50;;;0.70;;
9445;SDS011;4761;49.490;10.908;2022-12-26T14:12:48;0.73;;;0.73;;
9445;SDS011;4761;49.490;10.908;2022-12-26T14:16:02;0.70;;;0.70;;
9445;SDS011;4761;49.490;10.908;2022-12-26T14:18:37;0.70;;;0.70;;
9445;SDS011;4761;49.490;10.908;2022-12-26T14:21:31;0.67;;;0.67;;
9445;SDS011;4761;49.490;10.908;2022-12-26T14:24:17;0.77;;;0.77;;
9445;SDS011;4761;49.490;10.908;2022-12-26T14:29:51;0.60;;;0.60;;
9445;SDS011;4761;49.490;10.908;2022-12-26T14:35:37;0.80;;;0.80;;
9445;SDS011;4761;49.490;10.908;2022-12-26T14:41:10;0.60;;;0.60;;
9445;SDS011;4761;49.490;10.908;2022-12-26T14:44:15;0.60;;;0.60;;
9445;SDS011;4761;49.490;10.908;2022-12-26T14:46:54;0.60;;;0.60;;
9445;SDS011;4761;49.490;10.908;2022-12-26T14:49:22;0.70;;;0.70;;
9445;SDS011;4761;49.490;10.908;2022-12-26T14:51:54;0.80;;;0.77;;
9445;SDS011;4761;49.490;10.908;2022-12-26T14:54:49;0.60;;;0.60;;
9445;SDS011;4761;49.490;10.908;2022-12-26T14:57:37;0.57;;;0.57;;
9445;SDS011;4761;49.490;10.908;2022-12-26T15:00:46;0.70;;;0.70;;
9445;SDS011;4761;49.490;10.908;2022-12-26T15:03:10;0.60;;;0.60;;
9445;SDS011;4761;49.490;10.908;2022-12-26T15:05:43;0.70;;;0.70;;
9445;SDS011;4761;49.490;10.908;2022-12-26T15:16:33;0.60;;;0.60;;
9445;SDS011;4761;49.490;10.908;2022-12-26T15:19:13;0.60;;;0.60;;
9445;SDS011;4761;49.490;10.908;2022-12-26T15:27:30;0.60;;;0.60;;
9445;SDS011;4761;49.490;10.908;2022-12-26T15:30:19;0.60;;;0.60;;
9445;SDS011;4761;49.490;10.908;2022-12-26T15:33:08;0.80;;;0.80;;
9445;SDS011;4761;49.490;10.908;2022-12-26T15:35:52;0.90;;;0.70;;
9445;SDS011;4761;49.490;10.908;2022-12-26T15:38:37;0.67;;;0.67;;
9445;SDS011;4761;49.490;10.908;2022-12-26T15:41:13;0.70;;;0.70;;
9445;SDS011;4761;49.490;10.908;2022-12-26T15:44:07;0.70;;;0.70;;
9445;SDS011;4761;49.490;10.908;2022-12-26T15:49:37;0.70;;;0.70;;
9445;SDS011;4761;49.490;10.908;2022-12-26T15:55:07;1.03;;;0.50;;
9445;SDS011;4761;49.490;10.908;2022-12-26T15:57:57;0.60;;;0.60;;
9445;SDS011;4761;49.490;10.908;2022-12-26T16:00:50;0.90;;;0.70;;
9445;SDS011;4761;49.490;10.908;2022-12-26T16:03:27;0.60;;;0.60;;
9445;SDS011;4761;49.490;10.908;2022-12-26T16:09:34;0.50;;;0.50;;
9445;SDS011;4761;49.490;10.908;2022-12-26T16:11:53;0.60;;;0.60;;
9445;SDS011;4761;49.490;10.908;2022-12-26T16:17:14;0.80;;;0.80;;
9445;SDS011;4761;49.490;10.908;2022-12-26T16:19:50;0.80;;;0.80;;
9445;SDS011;4761;49.490;10.908;2022-12-26T16:25:11;0.70;;;0.70;;
9445;SDS011;4761;49.490;10.908;2022-12-26T16:27:43;0.60;;;0.60;;
9445;SDS011;4761;49.490;10.908;2022-12-26T16:30:19;0.70;;;0.70;;
9445;SDS011;4761;49.490;10.908;2022-12-26T16:32:46;0.50;;;0.50;;
9445;SDS011;4761;49.490;10.908;2022-12-26T16:35:30;2.23;;;0.60;;
9445;SDS011;4761;49.490;10.908;2022-12-26T16:37:58;0.97;;;0.80;;
9445;SDS011;4761;49.490;10.908;2022-12-26T16:45:29;0.67;;;0.67;;
9445;SDS011;4761;49.490;10.908;2022-12-26T16:47:56;0.60;;;0.60;;
9445;SDS011;4761;49.490;10.908;2022-12-26T16:50:24;0.50;;;0.50;;
9445;SDS011;4761;49.490;10.908;2022-12-26T16:53:03;0.80;;;0.80;;
9445;SDS011;4761;49.490;10.908;2022-12-26T16:58:21;0.50;;;0.50;;
9445;SDS011;4761;49.490;10.908;2022-12-26T17:00:57;0.70;;;0.70;;
9445;SDS011;4761;49.490;10.908;2022-12-26T17:08:54;0.60;;;0.60;;
9445;SDS011;4761;49.490;10.908;2022-12-26T17:11:25;0.60;;;0.60;;
9445;SDS011;4761;49.490;10.908;2022-12-26T17:13:53;0.70;;;0.70;;
9445;SDS011;4761;49.490;10.908;2022-12-26T17:16:24;1.67;;;0.67;;
9445;SDS011;4761;49.490;10.908;2022-12-26T17:18:53;1.13;;;0.80;;
9445;SDS011;4761;49.490;10.908;2022-12-26T17:21:32;0.70;;;0.70;;
9445;SDS011;4761;49.490;10.908;2022-12-26T17:26:27;1.00;;;0.70;;
9445;SDS011;4761;49.490;10.908;2022-12-26T17:28:53;0.93;;;0.70;;
9445;SDS011;4761;49.490;10.908;2022-12-26T17:31:26;1.60;;;0.60;;
9445;SDS011;4761;49.490;10.908;2022-12-26T17:33:56;0.83;;;0.67;;
9445;SDS011;4761;49.490;10.908;2022-12-26T17:36:24;0.83;;;0.77;;
9445;SDS011;4761;49.490;10.908;2022-12-26T17:38:52;0.70;;;0.70;;
9445;SDS011;4761;49.490;10.908;2022-12-26T17:41:17;0.60;;;0.60;;
9445;SDS011;4761;49.490;10.908;2022-12-26T17:43:44;0.73;;;0.63;;
9445;SDS011;4761;49.490;10.908;2022-12-26T17:46:12;0.60;;;0.60;;
9445;SDS011;4761;49.490;10.908;2022-12-26T17:48:40;0.60;;;0.60;;
9445;SDS011;4761;49.490;10.908;2022-12-26T17:51:06;0.60;;;0.60;;
9445;SDS011;4761;49.490;10.908;2022-12-26T17:53:39;1.20;;;0.70;;
9445;SDS011;4761;49.490;10.908;2022-12-26T17:56:11;0.73;;;0.70;;
9445;SDS011;4761;49.490;10.908;2022-12-26T17:58:38;1.13;;;0.80;;
9445;SDS011;4761;49.490;10.908;2022-12-26T18:01:04;0.60;;;0.60;;
9445;SDS011;4761;49.490;10.908;2022-12-26T18:03:30;0.90;;;0.70;;
9445;SDS011;4761;49.490;10.908;2022-12-26T18:05:55;0.70;;;0.70;;
9445;SDS011;4761;49.490;10.908;2022-12-26T18:08:24;0.60;;;0.60;;
9445;SDS011;4761;49.490;10.908;2022-12-26T18:10:59;0.70;;;0.70;;
9445;SDS011;4761;49.490;10.908;2022-12-26T18:13:26;0.50;;;0.50;;
9445;SDS011;4761;49.490;10.908;2022-12-26T18:15:52;0.53;;;0.53;;
9445;SDS011;4761;49.490;10.908;2022-12-26T18:18:28;0.80;;;0.80;;
9445;SDS011;4761;49.490;10.908;2022-12-26T18:21:00;0.70;;;0.70;;
9445;SDS011;4761;49.490;10.908;2022-12-26T18:23:27;0.67;;;0.67;;
9445;SDS011;4761;49.490;10.908;2022-12-26T18:25:54;0.60;;;0.60;;
9445;SDS011;4761;49.490;10.908;2022-12-26T18:28:21;0.60;;;0.60;;
9445;SDS011;4761;49.490;10.908;2022-12-26T18:30:46;0.70;;;0.70;;
9445;SDS011;4761;49.490;10.908;2022-12-26T18:33:12;0.60;;;0.60;;
9445;SDS011;4761;49.490;10.908;2022-12-26T18:35:39;1.33;;;0.80;;
9445;SDS011;4761;49.490;10.908;2022-12-26T18:38:06;0.70;;;0.70;;
9445;SDS011;4761;49.490;10.908;2022-12-26T18:40:33;0.60;;;0.60;;
9445;SDS011;4761;49.490;10.908;2022-12-26T18:43:05;0.60;;;0.60;;
9445;SDS011;4761;49.490;10.908;2022-12-26T18:45:31;0.70;;;0.70;;